Time;durP1;ratioP1;P1;durP2;ratioP2;P2;SDS_P1;SDS_P2;PMS_P1;PMS_P2;Temp;Humidity;BMP_temperature;BMP_pressure;BME280_temperature;BME280_humidity;BME280_pressure;Samples;Min_cycle;Max_cycle;Signal;HPM_P1;HPM_P2
2021/06/22 00:02:00;;;;;;;8.75;2.55;;;;;;;;;;5053250;28;20045;-37
2021/06/22 00:04:26;;;;;;;4.43;2.35;;;;;;;;;;5065668;28;20082;-36
2021/06/22 00:06:53;;;;;;;5.85;2.65;;;;;;;;;;5083131;28;20072;-37
2021/06/22 00:09:20;;;;;;;4.55;2.50;;;;;;;;;;5062500;28;20049;-37
2021/06/22 00:11:47;;;;;;;4.97;2.38;;;;;;;;;;5035392;28;20118;-37
2021/06/22 00:14:14;;;;;;;7.10;2.45;;;;;;;;;;5044548;28;20072;-37
2021/06/22 00:16:41;;;;;;;6.00;2.60;;;;;;;;;;5073507;28;20062;-37
2021/06/22 00:19:08;;;;;;;5.18;2.10;;;;;;;;;;5064363;28;20075;-37
2021/06/22 00:21:35;;;;;;;5.00;2.10;;;;;;;;;;5052925;28;20045;-37
2021/06/22 00:24:02;;;;;;;5.00;2.50;;;;;;;;;;5059652;28;20072;-38
2021/06/22 00:26:28;;;;;;;5.82;2.13;;;;;;;;;;5053260;28;20056;-37
2021/06/22 00:28:55;;;;;;;4.28;2.03;;;;;;;;;;5064569;28;20044;-37
2021/06/22 00:31:22;;;;;;;5.00;2.60;;;;;;;;;;5055324;28;20171;-37
2021/06/22 00:33:49;;;;;;;4.75;2.13;;;;;;;;;;5067407;28;20487;-37
2021/06/22 00:36:16;;;;;;;5.25;2.10;;;;;;;;;;5055694;28;20084;-37
2021/06/22 00:38:42;;;;;;;5.07;2.67;;;;;;;;;;5053204;28;20083;-37
2021/06/22 00:41:09;;;;;;;4.88;2.08;;;;;;;;;;5052422;28;20053;-37
2021/06/22 00:43:37;;;;;;;5.90;3.10;;;;;;;;;;5052101;28;20044;-38
2021/06/22 00:46:04;;;;;;;5.05;2.15;;;;;;;;;;5054258;28;20409;-39
2021/06/22 00:48:32;;;;;;;4.75;2.40;;;;;;;;;;5053840;28;20073;-37
2021/06/22 00:50:59;;;;;;;5.07;2.47;;;;;;;;;;5054325;28;20549;-37
2021/06/22 00:53:27;;;;;;;3.60;2.28;;;;;;;;;;5055039;28;20097;-38
2021/06/22 00:55:54;;;;;;;4.25;2.45;;;;;;;;;;5061733;28;20049;-37
2021/06/22 00:58:42;;;;;;;4.18;2.15;;;;;;;;;;5052336;28;20056;-38
2021/06/22 01:01:09;;;;;;;5.18;2.35;;;;;;;;;;5051636;28;20072;-37
2021/06/22 01:03:37;;;;;;;4.80;2.30;;;;;;;;;;5034367;28;20073;-37
2021/06/22 01:06:11;;;;;;;4.35;2.38;;;;;;;;;;5062592;28;20050;-36
2021/06/22 01:08:45;;;;;;;6.97;2.30;;;;;;;;;;5069410;28;20046;-37
2021/06/22 01:11:13;;;;;;;3.55;2.00;;;;;;;;;;5060500;28;20491;-36
2021/06/22 01:13:41;;;;;;;6.25;2.55;;;;;;;;;;5041737;28;20052;-37
2021/06/22 01:16:21;;;;;;;5.00;2.30;;;;;;;;;;5057899;28;20106;-36
2021/06/22 01:18:56;;;;;;;4.00;1.92;;;;;;;;;;5033976;28;20140;-37
2021/06/22 01:21:26;;;;;;;4.63;2.30;;;;;;;;;;5051370;28;20045;-37
2021/06/22 01:24:03;;;;;;;4.20;1.80;;;;;;;;;;5051158;28;20052;-37
2021/06/22 01:26:31;;;;;;;4.10;2.05;;;;;;;;;;5055745;28;20079;-37
2021/06/22 01:28:58;;;;;;;3.28;1.70;;;;;;;;;;5060496;28;20056;-36
2021/06/22 01:31:25;;;;;;;3.38;1.70;;;;;;;;;;5053790;28;20118;-37
2021/06/22 01:33:52;;;;;;;5.10;2.10;;;;;;;;;;5071744;28;20619;-37
2021/06/22 01:36:22;;;;;;;3.03;1.70;;;;;;;;;;5072367;28;20444;-36
2021/06/22 01:38:50;;;;;;;3.30;2.10;;;;;;;;;;5059777;28;20072;-37
2021/06/22 01:41:18;;;;;;;6.15;2.00;;;;;;;;;;5033561;28;20051;-37
2021/06/22 01:43:45;;;;;;;4.97;2.38;;;;;;;;;;5044908;28;20052;-37
2021/06/22 01:46:13;;;;;;;3.33;2.00;;;;;;;;;;5053977;28;20060;-37
2021/06/22 01:48:40;;;;;;;4.88;1.95;;;;;;;;;;5053558;28;20131;-36
2021/06/22 01:51:07;;;;;;;4.15;1.83;;;;;;;;;;5053236;28;20052;-37
2021/06/22 01:53:34;;;;;;;4.38;1.77;;;;;;;;;;5071097;28;20048;-37
2021/06/22 01:56:11;;;;;;;4.68;1.88;;;;;;;;;;5068999;28;20124;-38
2021/06/22 01:58:46;;;;;;;2.78;1.67;;;;;;;;;;5050510;28;20051;-37
2021/06/22 02:01:35;;;;;;;4.00;1.80;;;;;;;;;;5045660;28;20048;-36
2021/06/22 02:04:10;;;;;;;2.40;1.33;;;;;;;;;;5045187;28;20471;-36
2021/06/22 02:06:38;;;;;;;4.68;1.80;;;;;;;;;;5052062;28;20079;-37
2021/06/22 02:09:23;;;;;;;4.80;1.80;;;;;;;;;;5052373;28;20053;-37
2021/06/22 02:11:50;;;;;;;4.60;1.65;;;;;;;;;;5033902;28;20136;-37
2021/06/22 02:14:17;;;;;;;5.40;1.73;;;;;;;;;;5075302;28;20060;-36
2021/06/22 02:16:45;;;;;;;2.50;1.55;;;;;;;;;;5057466;28;20125;-36
2021/06/22 02:19:12;;;;;;;3.10;1.52;;;;;;;;;;5058450;28;20056;-37
2021/06/22 02:21:40;;;;;;;6.47;2.10;;;;;;;;;;5051140;28;20214;-37
2021/06/22 02:24:10;;;;;;;4.07;2.00;;;;;;;;;;5061850;28;20472;-37
2021/06/22 02:26:37;;;;;;;2.75;1.50;;;;;;;;;;5066748;28;20052;-37
2021/06/22 02:29:04;;;;;;;4.18;1.60;;;;;;;;;;5073998;28;20398;-37
2021/06/22 02:31:31;;;;;;;3.45;1.75;;;;;;;;;;5075183;28;20037;-37
2021/06/22 02:34:00;;;;;;;3.63;1.73;;;;;;;;;;5047239;28;20045;-37
2021/06/22 02:36:27;;;;;;;4.43;1.55;;;;;;;;;;5070733;28;20110;-37
2021/06/22 02:38:55;;;;;;;5.07;1.40;;;;;;;;;;5066168;28;20045;-37
2021/06/22 02:41:24;;;;;;;3.70;1.63;;;;;;;;;;5037556;28;20041;-37
2021/06/22 02:44:01;;;;;;;4.85;1.90;;;;;;;;;;5047872;28;20127;-37
2021/06/22 02:46:32;;;;;;;5.03;2.05;;;;;;;;;;5038064;28;20071;-37
2021/06/22 02:49:00;;;;;;;5.28;1.90;;;;;;;;;;5038841;28;20045;-37
2021/06/22 02:51:27;;;;;;;4.80;1.98;;;;;;;;;;5037346;28;20391;-37
2021/06/22 02:53:55;;;;;;;4.05;1.80;;;;;;;;;;5064701;28;20045;-37
2021/06/22 02:56:23;;;;;;;6.55;1.92;;;;;;;;;;5057605;28;20051;-37
2021/06/22 02:58:55;;;;;;;3.35;1.80;;;;;;;;;;5066068;28;20132;-37
2021/06/22 03:01:22;;;;;;;4.03;1.85;;;;;;;;;;5054966;28;20084;-37
2021/06/22 03:53:28;;;;;;;6.18;2.20;;;;;;;;;;5069962;28;20032;-37
2021/06/22 03:55:56;;;;;;;4.03;2.25;;;;;;;;;;5074660;28;20122;-37
2021/06/22 03:58:47;;;;;;;4.95;2.55;;;;;;;;;;5056691;28;20046;-38
2021/06/22 04:01:16;;;;;;;4.80;2.25;;;;;;;;;;5056277;28;20041;-37
2021/06/22 04:03:42;;;;;;;3.28;2.10;;;;;;;;;;5074199;28;20087;-37
2021/06/22 04:06:12;;;;;;;4.32;2.40;;;;;;;;;;5055534;28;20144;-37
2021/06/22 04:08:41;;;;;;;5.65;2.60;;;;;;;;;;5035660;28;20045;-37
2021/06/22 04:11:14;;;;;;;4.65;2.30;;;;;;;;;;5068761;28;20417;-37
2021/06/22 04:13:41;;;;;;;6.38;2.30;;;;;;;;;;5064495;28;20060;-37
2021/06/22 04:16:08;;;;;;;4.93;2.50;;;;;;;;;;5067318;28;20045;-38
2021/06/22 04:18:37;;;;;;;5.18;2.50;;;;;;;;;;5073656;28;20048;-37
2021/06/22 04:21:08;;;;;;;3.25;2.03;;;;;;;;;;5040238;28;20422;-38
2021/06/22 04:23:43;;;;;;;4.32;2.50;;;;;;;;;;5053519;28;20056;-37
2021/06/22 04:26:12;;;;;;;5.82;2.65;;;;;;;;;;5054208;28;20063;-38
2021/06/22 04:28:39;;;;;;;4.25;2.40;;;;;;;;;;5054243;28;20053;-37
2021/06/22 04:31:06;;;;;;;5.35;2.38;;;;;;;;;;5052233;28;20123;-37
2021/06/22 04:33:32;;;;;;;4.40;2.40;;;;;;;;;;5053364;28;20057;-37
2021/06/22 04:35:59;;;;;;;3.30;2.00;;;;;;;;;;5053368;28;20057;-37
2021/06/22 04:38:26;;;;;;;5.57;2.28;;;;;;;;;;5053348;28;20140;-38
2021/06/22 04:40:53;;;;;;;4.15;2.10;;;;;;;;;;5052688;28;20045;-37
2021/06/22 04:43:20;;;;;;;3.58;1.85;;;;;;;;;;5052335;28;20079;-37
2021/06/22 04:45:46;;;;;;;4.70;1.88;;;;;;;;;;5053601;28;20391;-37
2021/06/22 04:48:13;;;;;;;3.53;2.15;;;;;;;;;;5052760;28;20106;-36
2021/06/22 04:50:40;;;;;;;4.28;2.08;;;;;;;;;;5053843;28;20067;-37
2021/06/22 04:53:07;;;;;;;7.93;2.10;;;;;;;;;;5071696;28;20131;-38
2021/06/22 04:55:34;;;;;;;5.18;2.70;;;;;;;;;;5072235;28;20056;-37
2021/06/22 04:58:01;;;;;;;4.47;2.85;;;;;;;;;;5072667;28;20045;-37
2021/06/22 05:00:28;;;;;;;6.20;2.92;;;;;;;;;;5049019;28;20052;-38
2021/06/22 05:02:55;;;;;;;8.95;2.63;;;;;;;;;;5072099;28;20106;-38
2021/06/22 05:05:22;;;;;;;5.88;2.38;;;;;;;;;;5059783;28;20051;-37
2021/06/22 05:07:50;;;;;;;7.47;3.22;;;;;;;;;;5061363;28;20059;-37
2021/06/22 05:10:16;;;;;;;7.57;2.85;;;;;;;;;;5066961;28;20059;-38
2021/06/22 05:12:45;;;;;;;5.60;2.70;;;;;;;;;;5052022;28;20077;-38
2021/06/22 05:15:17;;;;;;;3.83;2.15;;;;;;;;;;5059073;28;20398;-39
2021/06/22 05:17:44;;;;;;;6.30;2.70;;;;;;;;;;5072625;28;20067;-39
2021/06/22 05:20:11;;;;;;;5.15;3.15;;;;;;;;;;5062317;28;20041;-38
2021/06/22 05:22:38;;;;;;;6.80;3.15;;;;;;;;;;5053350;28;20045;-38
2021/06/22 05:25:05;;;;;;;6.47;3.35;;;;;;;;;;5035539;28;20041;-38
2021/06/22 05:27:32;;;;;;;8.80;3.45;;;;;;;;;;5054159;28;20045;-38
2021/06/22 05:29:58;;;;;;;11.00;4.40;;;;;;;;;;5062896;28;20048;-38
2021/06/22 05:32:25;;;;;;;5.80;3.28;;;;;;;;;;5077902;28;20147;-38
2021/06/22 05:34:52;;;;;;;7.70;3.30;;;;;;;;;;5074868;28;20082;-38
2021/06/22 05:37:19;;;;;;;6.43;3.15;;;;;;;;;;5076169;28;20051;-38
2021/06/22 05:39:47;;;;;;;6.28;3.08;;;;;;;;;;5075184;28;20555;-38
2021/06/22 05:42:14;;;;;;;6.07;3.08;;;;;;;;;;5056515;28;20056;-38
2021/06/22 05:44:42;;;;;;;7.50;3.10;;;;;;;;;;5039430;28;20072;-38
2021/06/22 05:47:08;;;;;;;6.18;3.53;;;;;;;;;;5071571;28;20052;-39
2021/06/22 05:49:35;;;;;;;6.20;3.25;;;;;;;;;;5055793;28;20036;-38
2021/06/22 05:52:03;;;;;;;8.18;3.33;;;;;;;;;;5074130;28;20085;-38
2021/06/22 05:54:30;;;;;;;5.00;2.95;;;;;;;;;;5075015;28;20493;-38
2021/06/22 05:56:56;;;;;;;6.13;2.90;;;;;;;;;;5076845;28;20040;-41
2021/06/22 05:59:23;;;;;;;6.80;2.95;;;;;;;;;;5073148;28;20075;-40
2021/06/22 06:01:50;;;;;;;6.13;2.97;;;;;;;;;;5070585;28;20127;-39
2021/06/22 06:04:17;;;;;;;5.95;2.80;;;;;;;;;;5055592;28;20041;-39
2021/06/22 06:06:44;;;;;;;3.85;2.63;;;;;;;;;;5064266;28;20072;-39
2021/06/22 06:09:11;;;;;;;6.10;2.50;;;;;;;;;;5058291;28;20132;-38
2021/06/22 06:11:37;;;;;;;5.25;2.53;;;;;;;;;;5052159;28;20064;-39
2021/06/22 06:14:04;;;;;;;6.38;2.90;;;;;;;;;;5052746;28;20056;-39
2021/06/22 06:16:31;;;;;;;4.78;2.22;;;;;;;;;;5061877;28;20067;-38
2021/06/22 06:18:58;;;;;;;4.78;2.40;;;;;;;;;;5061184;28;20052;-39
2021/06/22 06:21:25;;;;;;;3.15;2.22;;;;;;;;;;5064641;28;20052;-39
2021/06/22 06:23:56;;;;;;;5.30;2.40;;;;;;;;;;5075309;28;20041;-39
2021/06/22 06:26:23;;;;;;;3.85;2.42;;;;;;;;;;5075060;28;20079;-51
2021/06/22 06:28:52;;;;;;;3.78;2.45;;;;;;;;;;5064640;28;20068;-40
2021/06/22 06:31:21;;;;;;;7.28;2.17;;;;;;;;;;5064282;28;20057;-39
2021/06/22 06:33:48;;;;;;;4.70;1.92;;;;;;;;;;5075486;28;20080;-39
2021/06/22 06:36:16;;;;;;;10.95;2.30;;;;;;;;;;5066075;28;20075;-38
2021/06/22 06:38:42;;;;;;;4.60;2.17;;;;;;;;;;5079058;28;20143;-42
2021/06/22 06:41:09;;;;;;;6.75;2.40;;;;;;;;;;5076983;28;20502;-40
2021/06/22 06:43:36;;;;;;;5.35;2.42;;;;;;;;;;5071937;28;20075;-39
2021/06/22 06:46:03;;;;;;;4.18;2.10;;;;;;;;;;5076430;28;20134;-39
2021/06/22 06:48:31;;;;;;;3.45;2.25;;;;;;;;;;5058462;28;20043;-40
2021/06/22 06:50:58;;;;;;;5.82;2.00;;;;;;;;;;5065914;28;20524;-39
2021/06/22 06:53:25;;;;;;;4.65;2.08;;;;;;;;;;5069424;28;20132;-38
2021/06/22 06:55:52;;;;;;;2.78;1.90;;;;;;;;;;5071410;28;20114;-40
2021/06/22 06:58:19;;;;;;;4.65;1.92;;;;;;;;;;5071781;28;20044;-38
2021/06/22 07:00:46;;;;;;;3.67;2.13;;;;;;;;;;5066500;28;20041;-40
2021/06/22 07:03:13;;;;;;;4.22;2.33;;;;;;;;;;5080726;28;20053;-38
2021/06/22 07:05:40;;;;;;;4.22;2.10;;;;;;;;;;5041471;28;20041;-39
2021/06/22 07:08:07;;;;;;;2.88;1.88;;;;;;;;;;5079367;28;20044;-38
2021/06/22 07:10:34;;;;;;;5.93;2.33;;;;;;;;;;5078840;28;20078;-40
2021/06/22 07:13:04;;;;;;;6.30;2.30;;;;;;;;;;5072340;28;20056;-39
2021/06/22 07:15:31;;;;;;;5.45;2.35;;;;;;;;;;5082724;28;20076;-38
2021/06/22 07:17:58;;;;;;;6.80;2.50;;;;;;;;;;5076396;28;20506;-38
2021/06/22 07:20:25;;;;;;;6.40;2.05;;;;;;;;;;5075891;28;20045;-36
2021/06/22 07:22:52;;;;;;;8.57;2.70;;;;;;;;;;5075377;28;20528;-38
2021/06/22 07:25:20;;;;;;;4.55;2.22;;;;;;;;;;5075568;28;20102;-38
2021/06/22 07:27:48;;;;;;;8.95;2.30;;;;;;;;;;5068870;28;20068;-38
2021/06/22 07:30:16;;;;;;;5.75;2.13;;;;;;;;;;5073960;28;20051;-39
2021/06/22 07:32:43;;;;;;;5.22;2.55;;;;;;;;;;5081792;28;20043;-39
2021/06/22 07:35:11;;;;;;;6.25;2.15;;;;;;;;;;5087035;28;20049;-38
2021/06/22 07:37:39;;;;;;;6.40;2.30;;;;;;;;;;5088671;28;20391;-39
2021/06/22 07:40:09;;;;;;;4.55;2.10;;;;;;;;;;5078583;28;20044;-39
2021/06/22 07:42:35;;;;;;;5.45;1.98;;;;;;;;;;5072780;28;20053;-39
2021/06/22 07:45:03;;;;;;;3.58;2.05;;;;;;;;;;5073090;28;20409;-39
2021/06/22 07:47:30;;;;;;;7.82;3.97;;;;;;;;;;5065965;28;20102;-39
2021/06/22 07:49:57;;;;;;;10.63;2.42;;;;;;;;;;5063210;28;20667;-40
2021/06/22 07:52:24;;;;;;;3.88;1.83;;;;;;;;;;5082796;28;20448;-41
2021/06/22 07:54:51;;;;;;;4.07;1.65;;;;;;;;;;5084945;28;20052;-39
2021/06/22 07:57:18;;;;;;;4.68;2.33;;;;;;;;;;5071959;28;20056;-39
2021/06/22 07:59:45;;;;;;;4.07;1.65;;;;;;;;;;5073001;28;20044;-38
2021/06/22 08:02:11;;;;;;;3.80;1.60;;;;;;;;;;5072245;28;20055;-39
2021/06/22 08:04:38;;;;;;;7.10;2.05;;;;;;;;;;5069992;28;104997;-40
2021/06/22 08:07:05;;;;;;;6.05;2.10;;;;;;;;;;5059163;28;20544;-39
2021/06/22 08:09:32;;;;;;;5.10;1.85;;;;;;;;;;5085931;28;20071;-38
2021/06/22 08:12:00;;;;;;;7.82;2.25;;;;;;;;;;5071549;28;20049;-38
2021/06/22 08:14:27;;;;;;;5.03;2.00;;;;;;;;;;5071829;28;20090;-39
2021/06/22 08:16:53;;;;;;;4.40;2.13;;;;;;;;;;5072908;28;20135;-39
2021/06/22 08:19:20;;;;;;;4.63;1.90;;;;;;;;;;5071559;28;20091;-39
2021/06/22 08:21:47;;;;;;;3.70;1.60;;;;;;;;;;5073100;28;20519;-39
2021/06/22 08:24:14;;;;;;;3.95;1.60;;;;;;;;;;5072898;28;20493;-39
2021/06/22 08:26:41;;;;;;;3.17;1.50;;;;;;;;;;5056312;28;20452;-41
2021/06/22 08:29:07;;;;;;;5.93;1.50;;;;;;;;;;5073063;28;20497;-39
2021/06/22 08:31:34;;;;;;;4.95;2.00;;;;;;;;;;5071120;28;20219;-39
2021/06/22 08:34:01;;;;;;;5.07;1.58;;;;;;;;;;5074244;28;20052;-39
2021/06/22 08:36:28;;;;;;;6.90;1.60;;;;;;;;;;5063438;28;20076;-39
2021/06/22 08:38:56;;;;;;;8.15;2.13;;;;;;;;;;5073121;28;20417;-40
2021/06/22 08:41:25;;;;;;;5.70;1.60;;;;;;;;;;5046707;28;20155;-39
2021/06/22 08:43:54;;;;;;;4.68;1.92;;;;;;;;;;5066595;28;20173;-38
2021/06/22 08:46:20;;;;;;;2.70;1.40;;;;;;;;;;5072478;28;20054;-39
2021/06/22 08:48:47;;;;;;;4.53;1.58;;;;;;;;;;5067913;28;20041;-39
2021/06/22 08:51:35;;;;;;;6.72;2.25;;;;;;;;;;5060840;28;20057;-39
2021/06/22 08:54:03;;;;;;;6.78;1.60;;;;;;;;;;5071464;28;20471;-39
2021/06/22 08:56:30;;;;;;;6.20;1.52;;;;;;;;;;5071344;28;20080;-39
2021/06/22 08:58:57;;;;;;;4.93;1.88;;;;;;;;;;5051510;28;20105;-40
2021/06/22 09:01:24;;;;;;;7.75;1.85;;;;;;;;;;5071685;28;20049;-39
2021/06/22 09:03:51;;;;;;;4.72;1.90;;;;;;;;;;5070778;28;20489;-39
2021/06/22 09:06:17;;;;;;;5.88;2.50;;;;;;;;;;5074788;28;20483;-39
2021/06/22 09:08:51;;;;;;;5.55;2.20;;;;;;;;;;5071108;28;20041;-40
2021/06/22 09:11:18;;;;;;;8.20;1.80;;;;;;;;;;5069997;28;20060;-40
2021/06/22 09:13:58;;;;;;;4.07;1.42;;;;;;;;;;5068425;28;20067;-40
2021/06/22 09:16:26;;;;;;;4.85;1.80;;;;;;;;;;5069525;28;20535;-41
2021/06/22 09:19:00;;;;;;;3.65;1.42;;;;;;;;;;5070940;28;20449;-42
2021/06/22 09:21:27;;;;;;;4.05;1.60;;;;;;;;;;5067981;28;20051;-40
2021/06/22 09:23:55;;;;;;;5.53;2.05;;;;;;;;;;5065130;28;20037;-41
2021/06/22 09:26:23;;;;;;;3.95;2.10;;;;;;;;;;5048683;28;20135;-41
2021/06/22 09:28:51;;;;;;;5.15;2.00;;;;;;;;;;5052822;28;20090;-41
2021/06/22 09:31:19;;;;;;;5.55;2.10;;;;;;;;;;5069997;28;20139;-43
2021/06/22 09:33:48;;;;;;;5.38;1.65;;;;;;;;;;5050164;28;20083;-41
2021/06/22 09:36:19;;;;;;;5.10;1.92;;;;;;;;;;5069667;28;20417;-39
2021/06/22 09:38:51;;;;;;;6.03;2.35;;;;;;;;;;5070807;28;20053;-41
2021/06/22 09:41:20;;;;;;;6.10;1.98;;;;;;;;;;5067129;28;20043;-42
2021/06/22 09:44:00;;;;;;;5.88;1.73;;;;;;;;;;5070704;28;20049;-41
2021/06/22 09:46:31;;;;;;;4.03;1.70;;;;;;;;;;5063965;28;20049;-40
2021/06/22 09:49:00;;;;;;;2.65;1.48;;;;;;;;;;5070601;28;20044;-42
2021/06/22 09:51:30;;;;;;;2.90;1.60;;;;;;;;;;5068423;28;20547;-41
2021/06/22 09:54:07;;;;;;;6.68;1.67;;;;;;;;;;5074889;28;20056;-41
2021/06/22 09:56:34;;;;;;;2.80;1.50;;;;;;;;;;5069710;28;20059;-41
2021/06/22 09:59:08;;;;;;;3.28;1.50;;;;;;;;;;5070877;28;20072;-40
2021/06/22 10:01:36;;;;;;;3.97;1.70;;;;;;;;;;5069828;28;20080;-41
2021/06/22 10:04:13;;;;;;;4.78;1.92;;;;;;;;;;5069862;28;20682;-40
2021/06/22 10:06:40;;;;;;;5.10;1.48;;;;;;;;;;5068772;28;20505;-40
2021/06/22 10:09:07;;;;;;;3.20;1.60;;;;;;;;;;5068590;28;20073;-40
2021/06/22 10:11:41;;;;;;;4.88;2.00;;;;;;;;;;5071245;28;20076;-40
2021/06/22 10:14:09;;;;;;;4.47;1.60;;;;;;;;;;5070208;28;20040;-40
2021/06/22 10:16:36;;;;;;;5.07;1.75;;;;;;;;;;5068643;28;20040;-41
2021/06/22 10:19:04;;;;;;;4.30;1.70;;;;;;;;;;5068539;28;20091;-40
2021/06/22 10:21:32;;;;;;;5.13;1.65;;;;;;;;;;5069876;28;20112;-40
2021/06/22 10:23:59;;;;;;;6.32;1.95;;;;;;;;;;5068243;28;20103;-40
2021/06/22 10:26:29;;;;;;;3.40;1.65;;;;;;;;;;5067102;28;20037;-38
2021/06/22 10:28:57;;;;;;;5.78;1.98;;;;;;;;;;5061879;28;20072;-40
2021/06/22 10:31:25;;;;;;;6.85;1.92;;;;;;;;;;5067687;28;20174;-40
2021/06/22 10:33:53;;;;;;;3.78;1.40;;;;;;;;;;5054659;28;20056;-39
2021/06/22 10:36:22;;;;;;;4.22;1.48;;;;;;;;;;5071940;28;20080;-39
2021/06/22 10:38:50;;;;;;;5.47;1.80;;;;;;;;;;5069683;28;20090;-39
2021/06/22 10:41:19;;;;;;;3.88;1.70;;;;;;;;;;5069833;28;20044;-39
2021/06/22 10:43:47;;;;;;;3.33;1.40;;;;;;;;;;5068590;28;20044;-40
2021/06/22 10:46:16;;;;;;;3.58;1.45;;;;;;;;;;5070295;28;20070;-39
2021/06/22 10:48:45;;;;;;;4.88;1.60;;;;;;;;;;5068740;28;20041;-39
2021/06/22 10:51:28;;;;;;;3.72;1.73;;;;;;;;;;5075249;28;20505;-39
2021/06/22 10:53:55;;;;;;;3.85;1.58;;;;;;;;;;5073424;28;20083;-39
2021/06/22 10:56:23;;;;;;;4.95;1.75;;;;;;;;;;5073962;28;20048;-39
2021/06/22 10:59:08;;;;;;;3.90;1.50;;;;;;;;;;5074823;28;20045;-39
2021/06/22 11:01:59;;;;;;;4.80;1.58;;;;;;;;;;5076567;28;20551;-40
2021/06/22 11:04:26;;;;;;;4.80;1.88;;;;;;;;;;5060687;28;20068;-41
2021/06/22 11:07:03;;;;;;;3.95;1.70;;;;;;;;;;5073015;28;20056;-39
2021/06/22 11:09:30;;;;;;;3.72;1.38;;;;;;;;;;5069589;28;20037;-39
2021/06/22 11:12:16;;;;;;;6.93;1.90;;;;;;;;;;5074885;28;20121;-39
2021/06/22 11:14:58;;;;;;;4.07;1.42;;;;;;;;;;5073783;28;20078;-40
2021/06/22 11:17:43;;;;;;;3.60;1.63;;;;;;;;;;5067086;28;20075;-40
2021/06/22 11:20:13;;;;;;;6.93;1.90;;;;;;;;;;5072183;28;20297;-40
2021/06/22 11:23:00;;;;;;;5.00;1.60;;;;;;;;;;5074135;28;20139;-40
2021/06/22 11:25:47;;;;;;;5.18;1.60;;;;;;;;;;5055389;28;20135;-39
2021/06/22 11:28:14;;;;;;;3.25;1.85;;;;;;;;;;5070795;28;20098;-39
2021/06/22 11:30:50;;;;;;;5.72;2.00;;;;;;;;;;5074454;28;20110;-38
2021/06/22 11:33:29;;;;;;;7.32;2.15;;;;;;;;;;5073165;28;20083;-42
2021/06/22 11:36:15;;;;;;;4.85;1.90;;;;;;;;;;5069110;28;20607;-40
2021/06/22 11:38:42;;;;;;;2.72;1.70;;;;;;;;;;5069048;28;20056;-42
2021/06/22 11:41:10;;;;;;;5.13;2.05;;;;;;;;;;5070574;28;20053;-43
2021/06/22 11:43:37;;;;;;;2.30;1.52;;;;;;;;;;5074808;28;20091;-41
2021/06/22 11:46:22;;;;;;;3.33;2.00;;;;;;;;;;5074490;28;20082;-41
2021/06/22 11:48:59;;;;;;;2.38;1.65;;;;;;;;;;5073472;28;20048;-43
2021/06/22 11:51:45;;;;;;;4.65;1.73;;;;;;;;;;5074252;28;20048;-40
2021/06/22 11:54:16;;;;;;;2.42;1.67;;;;;;;;;;5055769;28;20040;-42
2021/06/22 11:56:43;;;;;;;5.50;2.45;;;;;;;;;;5066233;28;20072;-42
2021/06/22 11:59:10;;;;;;;2.45;1.60;;;;;;;;;;5053225;28;20112;-42
2021/06/22 12:01:44;;;;;;;4.43;2.00;;;;;;;;;;5056722;28;20048;-41
2021/06/22 12:04:11;;;;;;;4.40;1.90;;;;;;;;;;5074010;28;20089;-42
2021/06/22 12:06:38;;;;;;;5.18;2.60;;;;;;;;;;5073085;28;20048;-43
2021/06/22 12:09:18;;;;;;;6.93;2.47;;;;;;;;;;5064310;28;20041;-43
2021/06/22 12:11:47;;;;;;;3.28;1.92;;;;;;;;;;5073291;28;20055;-42
2021/06/22 12:14:14;;;;;;;4.07;2.30;;;;;;;;;;5073664;28;20048;-44
2021/06/22 12:16:44;;;;;;;4.93;2.70;;;;;;;;;;5053394;28;20118;-40
2021/06/22 12:19:16;;;;;;;3.25;2.05;;;;;;;;;;5073533;28;20490;-41
2021/06/22 12:21:48;;;;;;;4.70;2.15;;;;;;;;;;5072178;28;20072;-40
2021/06/22 12:24:15;;;;;;;6.65;2.42;;;;;;;;;;5065216;28;20103;-41
2021/06/22 12:26:44;;;;;;;4.75;2.10;;;;;;;;;;5073638;28;20060;-40
2021/06/22 12:29:24;;;;;;;4.97;2.20;;;;;;;;;;5069982;28;20110;-41
2021/06/22 12:31:51;;;;;;;4.80;2.22;;;;;;;;;;5072650;28;20409;-43
2021/06/22 12:34:18;;;;;;;4.35;1.90;;;;;;;;;;5072707;28;20057;-46
2021/06/22 12:36:45;;;;;;;3.42;2.03;;;;;;;;;;5072084;28;20084;-43
2021/06/22 12:39:15;;;;;;;5.28;2.00;;;;;;;;;;5073403;28;20095;-45
2021/06/22 12:41:42;;;;;;;4.28;2.28;;;;;;;;;;5073454;28;20048;-47
2021/06/22 12:44:09;;;;;;;3.38;1.80;;;;;;;;;;5072338;28;20083;-43
2021/06/22 12:46:40;;;;;;;4.82;1.58;;;;;;;;;;5067650;28;20065;-43
2021/06/22 12:49:10;;;;;;;4.80;1.90;;;;;;;;;;5073727;28;20149;-42
2021/06/22 12:51:39;;;;;;;6.45;1.67;;;;;;;;;;5075138;28;20032;-42
2021/06/22 12:54:06;;;;;;;3.72;1.60;;;;;;;;;;5079117;28;20053;-44
2021/06/22 12:56:50;;;;;;;4.18;1.95;;;;;;;;;;5073096;28;20045;-43
2021/06/22 12:59:21;;;;;;;3.72;1.52;;;;;;;;;;5073168;28;20055;-43
2021/06/22 13:02:08;;;;;;;4.27;1.90;;;;;;;;;;5054631;28;20098;-44
2021/06/22 13:04:42;;;;;;;3.05;1.70;;;;;;;;;;5071189;28;20098;-43
2021/06/22 13:07:10;;;;;;;3.65;1.52;;;;;;;;;;5063104;28;20052;-45
2021/06/22 13:09:40;;;;;;;4.18;1.80;;;;;;;;;;5068216;28;20110;-44
2021/06/22 13:12:34;;;;;;;5.93;2.03;;;;;;;;;;5053474;28;20051;-43
2021/06/22 13:18:20;;;;;;;4.05;1.90;;;;;;;;;;5042075;28;20080;-43
2021/06/22 13:20:47;;;;;;;5.15;2.15;;;;;;;;;;5072062;28;20048;-41
2021/06/22 13:23:13;;;;;;;4.20;1.92;;;;;;;;;;5063961;28;20036;-41
2021/06/22 13:25:40;;;;;;;5.50;2.28;;;;;;;;;;5071539;28;20068;-41
2021/06/22 13:28:08;;;;;;;3.65;1.92;;;;;;;;;;5071896;28;20040;-40
2021/06/22 13:30:36;;;;;;;10.70;2.60;;;;;;;;;;5072007;28;20569;-42
2021/06/22 13:33:04;;;;;;;3.55;1.98;;;;;;;;;;5054669;28;20051;-41
2021/06/22 13:35:36;;;;;;;5.60;2.38;;;;;;;;;;5072291;28;20040;-41
2021/06/22 13:38:02;;;;;;;6.40;2.80;;;;;;;;;;5071665;28;20059;-44
2021/06/22 13:40:50;;;;;;;4.03;1.98;;;;;;;;;;5072110;28;20403;-42
2021/06/22 13:43:20;;;;;;;5.65;2.38;;;;;;;;;;5044551;28;20101;-42
2021/06/22 13:45:49;;;;;;;10.07;2.40;;;;;;;;;;5079983;22;20028;-37
2021/06/22 13:48:26;;;;;;;7.72;2.38;;;;;;;;;;5048147;28;20091;-38
2021/06/22 13:50:54;;;;;;;4.95;2.42;;;;;;;;;;5050672;28;20155;-37
2021/06/22 13:53:23;;;;;;;5.70;2.40;;;;;;;;;;5046768;28;20156;-41
2021/06/22 13:55:50;;;;;;;4.38;2.20;;;;;;;;;;5061685;28;20041;-39
2021/06/22 13:58:18;;;;;;;5.60;2.13;;;;;;;;;;5055479;28;20551;-38
2021/06/22 14:00:46;;;;;;;3.25;1.92;;;;;;;;;;5058741;28;20139;-40
2021/06/22 14:03:14;;;;;;;5.13;2.08;;;;;;;;;;5052382;28;20056;-39
2021/06/22 14:05:42;;;;;;;4.60;2.40;;;;;;;;;;5050143;28;20076;-39
2021/06/22 14:08:09;;;;;;;5.70;2.92;;;;;;;;;;5062325;28;20087;-39
2021/06/22 14:10:37;;;;;;;7.65;3.00;;;;;;;;;;5069506;28;20079;-38
2021/06/22 14:13:05;;;;;;;5.63;3.05;;;;;;;;;;5063524;28;20110;-38
2021/06/22 14:15:32;;;;;;;7.03;3.67;;;;;;;;;;5051843;28;20092;-38
2021/06/22 14:17:59;;;;;;;7.13;3.40;;;;;;;;;;5064120;28;20087;-38
2021/06/22 14:20:26;;;;;;;5.45;3.15;;;;;;;;;;5057474;28;20131;-38
2021/06/22 14:22:54;;;;;;;6.82;3.50;;;;;;;;;;5063100;28;20072;-37
2021/06/22 14:25:21;;;;;;;9.18;3.17;;;;;;;;;;5075354;28;20044;-38
2021/06/22 14:27:48;;;;;;;4.88;2.30;;;;;;;;;;5068860;28;20131;-39
2021/06/22 14:30:16;;;;;;;3.35;2.30;;;;;;;;;;5050611;28;20064;-38
2021/06/22 14:32:45;;;;;;;4.50;2.53;;;;;;;;;;5056329;28;20040;-38
2021/06/22 14:35:13;;;;;;;5.03;2.40;;;;;;;;;;5053051;28;20493;-37
2021/06/22 14:37:41;;;;;;;6.53;2.60;;;;;;;;;;5053493;28;20048;-38
2021/06/22 14:40:09;;;;;;;3.83;2.55;;;;;;;;;;5062316;28;20128;-38
2021/06/22 14:42:36;;;;;;;5.15;3.05;;;;;;;;;;5068387;28;20052;-37
2021/06/22 14:45:04;;;;;;;5.93;3.17;;;;;;;;;;5073074;28;20128;-40
2021/06/22 14:47:31;;;;;;;6.53;3.10;;;;;;;;;;5056828;28;20701;-38
2021/06/22 14:49:58;;;;;;;5.07;2.83;;;;;;;;;;5051019;28;20049;-37
2021/06/22 14:52:24;;;;;;;4.07;2.63;;;;;;;;;;5048811;28;20072;-37
2021/06/22 14:54:51;;;;;;;4.82;2.75;;;;;;;;;;5071403;28;20491;-39
2021/06/22 14:57:18;;;;;;;6.82;2.97;;;;;;;;;;5058767;28;20076;-39
2021/06/22 14:59:45;;;;;;;3.95;2.70;;;;;;;;;;5054529;28;20150;-39
2021/06/22 15:02:12;;;;;;;3.95;2.80;;;;;;;;;;5055052;28;20052;-39
2021/06/22 15:04:39;;;;;;;5.05;2.92;;;;;;;;;;5053059;28;20125;-39
2021/06/22 15:07:05;;;;;;;5.88;3.28;;;;;;;;;;5050223;28;20075;-38
2021/06/22 15:09:34;;;;;;;8.48;3.50;;;;;;;;;;5067358;28;20049;-38
2021/06/22 15:12:01;;;;;;;8.07;3.17;;;;;;;;;;5065300;28;20140;-38
2021/06/22 15:14:28;;;;;;;6.20;3.40;;;;;;;;;;5061122;28;20072;-39
2021/06/22 15:16:55;;;;;;;6.97;4.15;;;;;;;;;;5051839;28;20046;-38
2021/06/22 15:19:24;;;;;;;7.57;4.05;;;;;;;;;;5071319;28;20067;-40
2021/06/22 15:21:51;;;;;;;7.47;3.30;;;;;;;;;;5059646;28;20120;-40
2021/06/22 15:24:19;;;;;;;8.95;3.28;;;;;;;;;;5051091;28;20486;-38
2021/06/22 15:26:46;;;;;;;5.80;3.00;;;;;;;;;;5046157;28;20101;-39
2021/06/22 15:29:25;;;;;;;5.20;3.53;;;;;;;;;;5056005;28;20106;-38
2021/06/22 15:31:53;;;;;;;4.90;3.10;;;;;;;;;;5060730;28;20084;-41
2021/06/22 15:34:20;;;;;;;7.13;3.00;;;;;;;;;;5050455;28;20045;-42
2021/06/22 15:36:47;;;;;;;7.70;3.80;;;;;;;;;;5053187;28;20639;-40
2021/06/22 15:39:14;;;;;;;6.47;3.05;;;;;;;;;;5053734;28;20057;-42
2021/06/22 15:41:41;;;;;;;6.60;3.78;;;;;;;;;;5054711;28;20116;-40
2021/06/22 15:44:08;;;;;;;7.13;3.63;;;;;;;;;;5044681;28;20041;-39
2021/06/22 15:46:36;;;;;;;9.27;3.92;;;;;;;;;;5034950;28;20049;-38
2021/06/22 15:49:03;;;;;;;6.93;3.92;;;;;;;;;;5060183;28;20133;-40